Virgo Phoenix — 3FMO8 — position and weather

sailwx.info

Track history (hours):
 
Tides and Currents Weather Stations Pressure Air Temp Water Temp Dewpoint Dewpoint Depression Visibility Wind Speed Wind Dir Waves Ship Positions

Virgo Phoenix

Last reported at 2015-May-25 05:31 UTC. Time now 2015-May-29 00:19 UTC.
Position N 34°08' E 125°17'.

Length 96 m; draft 5.7 m.

Type: Ship (hazmat cat B). MMSI: 370795000.

Date/timePositionNaut miles runAvg speedWind from/ knotsBaromVisibWave heightAir tempDewpointWater temp
2015-May-25 05:31N 34°08' E 125°17'1712.7
2015-May-25 04:11N 34°02' E 125°36'812.0
2015-May-25 03:33N 33°59' E 125°45'1511.7
2015-May-25 02:18N 33°53' E 126°01'9211.8
2015-May-24 18:32N 33°54' E 127°51'1312.6
2015-May-24 17:29N 33°55' E 128°07'1213.0
2015-May-24 16:32N 33°56' E 128°22'5213.1
2015-May-24 12:33N 33°59' E 129°25'  
2015-May-21 21:04N 31°35' E 124°11'3714.5
2015-May-21 18:29N 31°19' E 123°31'8111.6
2015-May-21 11:33N 31°06' E 121°58'1514.7
2015-May-21 10:34N 31°16' E 121°45'1211.7
2015-May-21 09:33N 31°23' E 121°34'9 9.2
2015-May-21 08:33N 31°29' E 121°26'1212.0
2015-May-21 07:33N 31°37' E 121°16'1211.0
2015-May-21 06:29N 31°44' E 121°05'2 0.3
2015-May-20 23:10N 31°45' E 121°02'2 0.1
2015-May-20 08:28N 31°44' E 121°04'1112.2
2015-May-20 07:33N 31°38' E 121°15'1312.7
2015-May-20 06:33N 31°30' E 121°26'1010.0
2015-May-20 05:33N 31°23' E 121°35'1010.3
2015-May-20 04:33N 31°17' E 121°45'1413.9
2015-May-20 03:33N 31°07' E 121°56'1413.7
2015-May-20 02:30N 31°03' E 122°12'25 2.7
2015-May-19 17:20N 31°00' E 122°41'0 0.0
2015-May-19 12:08N 31°00' E 122°41'3 0.2
2015-May-18 22:09N 31°01' E 122°44'51512.4
2015-May-17 04:30N 31°51' E 132°44'39211.2
2015-May-15 17:31N 35°02' E 139°35'1212.7
2015-May-15 16:33N 35°11' E 139°45'1111.5
2015-May-15 15:33N 35°22' E 139°42'1211.8
2015-May-15 14:33N 35°30' E 139°53'9 8.4
2015-May-15 13:30N 35°32' E 140°03'0 0.0
2015-May-15 12:30N 35°32' E 140°03'0 0.0
2015-May-15 11:33N 35°32' E 140°03'0 0.0
2015-May-15 10:27N 35°32' E 140°03'0 0.0
2015-May-15 09:33N 35°32' E 140°03'0 0.0
2015-May-15 08:33N 35°32' E 140°03'0 0.0
2015-May-15 07:33N 35°32' E 140°03'0 0.0
2015-May-15 06:30N 35°32' E 140°03'0 0.0
2015-May-15 05:33N 35°32' E 140°03'  
Track history (hours):
 
Tides and Currents Weather Stations Pressure Air Temp Water Temp Dewpoint Dewpoint Depression Visibility Wind Speed Wind Dir Waves Ship Positions

Virgo Phoenix

Last reported at 2015-May-25 05:31 UTC. Time now 2015-May-29 00:19 UTC.
Position N 34°08' E 125°17'.

Length 96 m; draft 5.7 m.

Type: Ship (hazmat cat B). MMSI: 370795000.

Date/timePositionNaut miles runAvg speedWind from/ knotsBaromVisibWave heightAir tempDewpointWater temp
2015-May-25 05:31N 34°08' E 125°17'1712.7
2015-May-25 04:11N 34°02' E 125°36'812.0
2015-May-25 03:33N 33°59' E 125°45'1511.7
2015-May-25 02:18N 33°53' E 126°01'9211.8
2015-May-24 18:32N 33°54' E 127°51'1312.6
2015-May-24 17:29N 33°55' E 128°07'1213.0
2015-May-24 16:32N 33°56' E 128°22'5213.1
2015-May-24 12:33N 33°59' E 129°25'  
2015-May-21 21:04N 31°35' E 124°11'3714.5
2015-May-21 18:29N 31°19' E 123°31'8111.6
2015-May-21 11:33N 31°06' E 121°58'1514.7
2015-May-21 10:34N 31°16' E 121°45'1211.7
2015-May-21 09:33N 31°23' E 121°34'9 9.2
2015-May-21 08:33N 31°29' E 121°26'1212.0
2015-May-21 07:33N 31°37' E 121°16'1211.0
2015-May-21 06:29N 31°44' E 121°05'2 0.3
2015-May-20 23:10N 31°45' E 121°02'2 0.1
2015-May-20 08:28N 31°44' E 121°04'1112.2
2015-May-20 07:33N 31°38' E 121°15'1312.7
2015-May-20 06:33N 31°30' E 121°26'1010.0
2015-May-20 05:33N 31°23' E 121°35'1010.3
2015-May-20 04:33N 31°17' E 121°45'1413.9
2015-May-20 03:33N 31°07' E 121°56'1413.7
2015-May-20 02:30N 31°03' E 122°12'25 2.7
2015-May-19 17:20N 31°00' E 122°41'0 0.0
2015-May-19 12:08N 31°00' E 122°41'3 0.2
2015-May-18 22:09N 31°01' E 122°44'51512.4
2015-May-17 04:30N 31°51' E 132°44'39211.2
2015-May-15 17:31N 35°02' E 139°35'1212.7
2015-May-15 16:33N 35°11' E 139°45'1111.5
2015-May-15 15:33N 35°22' E 139°42'1211.8
2015-May-15 14:33N 35°30' E 139°53'9 8.4
2015-May-15 13:30N 35°32' E 140°03'0 0.0
2015-May-15 12:30N 35°32' E 140°03'0 0.0
2015-May-15 11:33N 35°32' E 140°03'0 0.0
2015-May-15 10:27N 35°32' E 140°03'0 0.0
2015-May-15 09:33N 35°32' E 140°03'0 0.0
2015-May-15 08:33N 35°32' E 140°03'0 0.0
2015-May-15 07:33N 35°32' E 140°03'0 0.0
2015-May-15 06:30N 35°32' E 140°03'0 0.0
2015-May-15 05:33N 35°32' E 140°03'  

Dump ship's entire track history